Insider trading report: insider purchases reported on May 13, 2019 , Part 3

This page lists insider stock purchases reported on May 13, 2019. To query the history of insider trading activities (stock purchases, sales, and option exercises) for a particular company, click on the Issuer column. For the most current insider trading transactions see Realtime Insider Trading Report. For insider stock sales reported on this day see insider trading report: insider sales reported on May 13, 2019.

 1   2   3 

Insider stock purchases reported on May 13, 2019 , Part 3 (This report is sorted by stock symbol).
Sort by
Symbol
Company Insider Name   Shares     Price   Sort by
Value($)
Trade
Date
RMTI Rockwell Medical, Inc. 1st time Rbi Opportunities Fund Ii, Llc 4,643 5.64 26,209 2019-05-09
RVP Retractable Technologies Inc 1st time Shaw Thomas J (President and CEO) 2,058 .70 1,450 2019-05-13
   Shaw Thomas J (President and CEO) 4,955 .71 3,513 2019-05-10
SKIS Peak Resorts Inc 1st time Kraus Carl 120 4.47 536 2019-05-10
   O'connor Christopher 97 4.47 433 2019-05-10
SLCA U.s. Silica Holdings, Inc. 1st time Shaver Charles W (Director) 10,000 13.06 130,600 2019-05-09
SNDX Syndax Pharmaceuticals Inc 1st time Morrison Briggs (Chief Executive Officer) 13,200 7.55 99,726 2019-05-09
   Morrison Briggs (Chief Executive Officer) 7,200 7.29 52,516 2019-05-13
SREV Servicesource International, Inc. 1st time Moore Gary B (CEO) 100,000 .98 98,000 2019-05-13
STLY Hg Holdings, Inc. 1st time Frederick Tucker Golden 61,000 .55 33,550 2019-05-13
   Frederick Tucker Golden 35,030 .50 17,515 2019-05-09
TDW Tidewater Inc 1st time Tamburrino Robert P. 5,000 22.75 113,750 2019-05-13
TEX Terex Corp 1st time Henry Brian J (SVP Finance, Bus Development) 76 30.33 2,305 2019-05-10
   Barr Kevin A (Senior V. P. Human Resources) 8 30.33 242 2019-05-10
   Sheehan John D (Senior Vice President, CFO) 439 29.57 12,981 2019-05-10
TPL Texas Pacific Land Trust 1st time Horizon Kinetics Asset Management Llc (10% Owner) 36 780.78 28,108 2019-05-10
TRVI Trevi Therapeutics, Inc. 1st time Barris Peter J (10% Owner) 2,500,000 10.00 25,000,000 2019-05-09
   Coulter James G 800,000 10.00 8,000,000 2019-05-09
   Mott David M (10% Owner) 2,500,000 10.00 25,000,000 2019-05-09
   Vanlent Anne (Director) 5,000 10.00 50,000 2019-05-09
   Good Jennifer L (See Remarks) 11,250 10.00 112,500 2019-05-09
   Makower Joshua (10% Owner) 2,500,000 10.00 25,000,000 2019-05-09
   Sandell Scott D (10% Owner) 2,500,000 10.00 25,000,000 2019-05-09
   Baskett Forest (10% Owner) 2,500,000 10.00 25,000,000 2019-05-09
   Meeker David P (Director) 11,250 10.00 112,500 2019-05-09
   Heffernan Michael Thomas (Director) 2,500 10.00 25,000 2019-05-09
   Walker Paul Edward (10% Owner) 2,500,000 10.00 25,000,000 2019-05-09
   Sonsini Peter W. (10% Owner) 2,500,000 10.00 25,000,000 2019-05-09
   Florence Anthony A. Jr. (10% Owner) 2,500,000 10.00 25,000,000 2019-05-09
   Lundbeckfond Invest A/s (10% Owner) 375,000 10.00 3,750,000 2019-05-09
   Behbahani Ali (10% Owner) 2,500,000 10.00 25,000,000 2019-05-09
   Makhzoumi Mohamad (10% Owner) 2,500,000 10.00 25,000,000 2019-05-09
   Nea 16 Gp, Llc (10% Owner) 2,500,000 10.00 25,000,000 2019-05-09
   Agger Mette Kirstine (Director) 375,000 10.00 3,750,000 2019-05-09
   Chang Carmen (10% Owner) 2,500,000 10.00 25,000,000 2019-05-09
   Mitsak Anna Guyer (Director) 481,000 10.00 4,810,000 2019-05-09
   Richard King Mellon Foundation (10% Owner) 100,000 10.00 1,000,000 2019-05-09
   Mfic V, Llc (10% Owner) 100,000 10.00 1,000,000 2019-05-09
   Aperture Ventures Iv Management, Llc (10% Owner) 112,000 10.00 1,120,000 2019-05-09
TUES Tuesday Morning Corp/de 1st time Becker Steven R (Chief Executive Officer) 10,000 1.69 16,900 2019-05-10
   Becker Steven R (Chief Executive Officer) 180,100 1.74 313,374 2019-05-09
UCTT Ultra Clean Holdings, Inc. 1st time Granger Clarence L 21,000 13.48 283,185 2019-05-09
UIHC United Insurance Holdings Corp. 1st time Hogan Michael 1,500 14.42 21,630 2019-05-10
   Whittemore Kent G 1,000 14.56 14,560 2019-05-10
ULBI Ultralife Corp 1st time Robert W. Shaw (Director) 1,500 8.38 12,570 2019-05-13
UNVR Univar Inc. 1st time Pappas Christopher D (Director) 10,000 22.41 224,100 2019-05-13
UVSP Univest Financial Corp 1st time Wonderling Robert C 2,500 25.04 62,600 2019-05-09
VBFC Village Bank & Trust Financial Corp. 1st time Walton Charles E (Director) 300 34.00 10,200 2019-05-09
VBTX Veritex Holdings, Inc. 1st time Bolin Pat S 18,771 25.78 483,878 2019-05-13
VIVO Meridian Bioscience Inc 1st time Phillips David (Director) 5,000 11.40 57,015 2019-05-13
VVR Invesco Senior Income Trust 1st time Weinstein Boaz (10% Owner) 72,807 4.31 313,798 2019-05-10
WETF Wisdomtree Investments, Inc. 1st time Steinberg Jonathan L (Chief Executive Officer) 75,000 6.57 492,750 2019-05-13

 1   2   3